Terminal Aerodrome Forecast
Issued by NWS

Home | Current Version | Previous Version | Text Only | Print | Product List | Glossary On
Versions: 1 2 3 4 5 6 7 8 9 10 11 12 13 14
000
FTUS43 KICT 161700
TAFSLN
TAF
KSLN 161737Z 1618/1718 21024G34KT P6SM BKN250
     FM162100 25018G27KT P6SM SCT250
     FM170000 34016G25KT P6SM SCT150 SCT250
     FM170300 02012KT P6SM BKN250=

USA.gov is the U.S. government's official web portal to all federal, state and local government web resources and services.